Time;durP1;ratioP1;P1;durP2;ratioP2;P2;SDS_P1;SDS_P2;PMS_P1;PMS_P2;Temp;Humidity;BMP_temperature;BMP_pressure;BME280_temperature;BME280_humidity;BME280_pressure;Samples;Min_cycle;Max_cycle;Signal;HPM_P1;HPM_P2
2022/01/21 00:00:22;;;;;;;15.43;2.28;;;2.60;99.90;;;;;;5104441;27;20054;-68
2022/01/21 00:02:47;;;;;;;17.00;2.42;;;2.60;99.90;;;;;;5115947;27;20043;-68
2022/01/21 00:05:13;;;;;;;15.35;2.38;;;2.60;99.90;;;;;;5116686;27;20586;-68
2022/01/21 00:07:39;;;;;;;14.95;2.42;;;2.60;99.90;;;;;;5099276;27;20086;-68
2022/01/21 00:10:05;;;;;;;11.95;2.35;;;2.60;99.90;;;;;;5116416;27;20043;-68
2022/01/21 00:12:32;;;;;;;13.80;2.75;;;2.70;99.90;;;;;;5098614;27;20067;-68
2022/01/21 00:14:58;;;;;;;5.63;2.35;;;2.70;99.90;;;;;;5116009;27;20054;-68
2022/01/21 00:17:24;;;;;;;8.65;2.70;;;2.70;99.90;;;;;;5134602;27;20039;-68
2022/01/21 00:30:05;;;;;;;19.67;3.03;;;2.70;99.90;;;;;;5134597;27;20050;-68
2022/01/21 00:30:51;;;;;;;18.77;2.97;;;2.60;99.90;;;;;;5134399;27;20043;-68
2022/01/21 00:33:16;;;;;;;23.08;4.88;;;2.70;99.90;;;;;;5115820;27;20084;-68
2022/01/21 00:35:42;;;;;;;25.23;3.20;;;2.70;99.90;;;;;;5115953;27;20038;-68
2022/01/21 00:38:08;;;;;;;12.18;3.05;;;2.70;99.90;;;;;;5134204;27;20046;-68
2022/01/21 00:40:34;;;;;;;10.40;2.40;;;2.60;99.90;;;;;;5098781;27;20039;-68
2022/01/21 00:45:34;;;;;;;14.27;2.90;;;2.70;99.90;;;;;;5115432;27;20506;-68
2022/01/21 00:48:00;;;;;;;22.00;3.70;;;2.80;99.90;;;;;;5098441;27;20043;-68
2022/01/21 00:50:25;;;;;;;13.13;3.20;;;2.80;99.90;;;;;;5115575;27;20039;-67
2022/01/21 00:52:51;;;;;;;11.32;2.47;;;2.80;99.90;;;;;;5115396;27;20487;-67
2022/01/21 00:55:16;;;;;;;18.23;3.42;;;2.90;99.90;;;;;;5098823;27;20130;-68
2022/01/21 00:57:42;;;;;;;16.17;3.47;;;2.80;99.90;;;;;;5115339;27;20043;-68
2022/01/21 01:00:10;;;;;;;13.82;2.80;;;2.90;99.90;;;;;;5115344;27;20049;-68
2022/01/21 01:02:37;;;;;;;12.80;2.67;;;2.90;99.90;;;;;;5114822;27;20043;-68
2022/01/21 01:05:04;;;;;;;11.95;3.40;;;2.90;99.90;;;;;;5115091;27;20046;-69
2022/01/21 01:07:30;;;;;;;11.50;2.40;;;2.90;99.90;;;;;;5133294;27;20463;-68
2022/01/21 01:09:57;;;;;;;14.25;2.08;;;2.80;99.90;;;;;;5115463;27;20066;-68
2022/01/21 01:12:55;;;;;;;16.88;2.90;;;2.90;99.90;;;;;;5135087;27;20050;-69
2022/01/21 01:20:50;;;;;;;17.83;3.20;;;2.90;99.90;;;;;;5114977;27;20055;-69
2022/01/21 01:23:38;;;;;;;13.38;2.60;;;2.90;99.90;;;;;;5114563;27;20050;-68
2022/01/21 01:28:49;;;;;;;8.45;2.88;;;2.90;99.90;;;;;;5133267;27;20096;-69
2022/01/21 01:31:15;;;;;;;18.00;2.30;;;2.90;99.90;;;;;;5114842;27;20075;-69
2022/01/21 01:33:41;;;;;;;9.32;2.10;;;2.80;99.90;;;;;;5114390;27;20046;-69
2022/01/21 01:36:08;;;;;;;15.40;2.55;;;2.90;99.90;;;;;;5114746;27;20043;-69
2022/01/21 01:41:06;;;;;;;10.77;1.98;;;2.80;99.90;;;;;;5114733;27;20074;-69
2022/01/21 01:51:28;;;;;;;15.85;3.05;;;2.90;99.90;;;;;;5132962;27;20488;-69
2022/01/21 01:54:02;;;;;;;12.32;2.30;;;2.90;99.90;;;;;;5114119;28;20043;-68
2022/01/21 01:56:31;;;;;;;8.05;2.00;;;2.90;99.90;;;;;;5114442;28;20043;-68
2022/01/21 01:58:57;;;;;;;10.15;2.50;;;2.90;99.90;;;;;;5114181;27;20122;-69
2022/01/21 02:01:22;;;;;;;12.38;2.22;;;3.00;99.90;;;;;;5114473;28;20142;-68
2022/01/21 02:03:48;;;;;;;7.88;2.65;;;2.90;99.90;;;;;;5114037;28;20053;-69
2022/01/21 02:06:14;;;;;;;8.93;2.00;;;2.90;99.90;;;;;;5097499;28;20047;-69
2022/01/21 02:08:40;;;;;;;8.85;2.10;;;3.00;99.90;;;;;;5114342;28;20046;-69
2022/01/21 02:11:06;;;;;;;12.45;3.85;;;3.00;99.90;;;;;;5113977;28;20039;-66
2022/01/21 02:13:38;;;;;;;10.50;2.20;;;3.00;99.90;;;;;;5113564;27;20126;-67
2022/01/21 02:16:15;;;;;;;8.85;2.40;;;3.00;99.90;;;;;;5114186;28;20046;-67
2022/01/21 02:21:36;;;;;;;9.93;2.17;;;3.00;99.90;;;;;;5118242;27;20055;-67
2022/01/21 02:24:45;;;;;;;10.25;1.67;;;3.00;99.90;;;;;;5118373;27;20440;-68
2022/01/21 02:27:11;;;;;;;8.25;1.80;;;3.00;99.90;;;;;;5118323;27;20107;-67
2022/01/21 02:29:45;;;;;;;10.40;2.25;;;3.10;99.90;;;;;;5118185;27;20039;-68
2022/01/21 02:32:10;;;;;;;10.75;2.30;;;3.10;99.90;;;;;;5101062;27;20047;-68
2022/01/21 02:34:36;;;;;;;6.70;2.10;;;3.00;99.90;;;;;;5118020;27;20035;-68
2022/01/21 02:37:03;;;;;;;11.70;2.08;;;3.10;99.90;;;;;;5136600;27;20039;-68
2022/01/21 02:39:28;;;;;;;9.63;1.65;;;3.00;99.90;;;;;;5136863;27;20485;-68
2022/01/21 02:41:55;;;;;;;9.32;1.80;;;2.80;99.90;;;;;;5136218;27;20062;-68
2022/01/21 02:44:22;;;;;;;7.95;1.90;;;2.90;99.90;;;;;;5117930;27;20039;-68
2022/01/21 02:46:54;;;;;;;14.65;2.17;;;3.00;99.90;;;;;;5117945;27;20119;-68
2022/01/21 02:49:19;;;;;;;10.00;2.08;;;2.90;99.90;;;;;;5136548;27;20044;-68
2022/01/21 02:51:45;;;;;;;9.32;2.13;;;2.90;99.90;;;;;;5102296;27;20389;-68
2022/01/21 02:54:11;;;;;;;8.18;1.67;;;3.00;99.90;;;;;;5109234;27;20035;-68
2022/01/21 02:56:38;;;;;;;5.13;1.60;;;3.00;99.90;;;;;;5125364;27;20043;-68
2022/01/21 02:59:06;;;;;;;5.57;1.70;;;3.00;99.90;;;;;;5100510;27;20130;-67
2022/01/21 03:01:34;;;;;;;8.68;1.77;;;3.00;99.90;;;;;;5100520;27;20118;-68
2022/01/21 03:04:00;;;;;;;5.07;1.58;;;2.90;99.90;;;;;;5117342;27;20100;-68
2022/01/21 03:06:26;;;;;;;10.25;2.25;;;2.90;99.90;;;;;;5135869;27;20051;-68
2022/01/21 03:08:54;;;;;;;9.90;2.15;;;3.00;99.90;;;;;;5117773;27;20119;-68
2022/01/21 03:11:21;;;;;;;7.72;1.48;;;3.10;99.90;;;;;;5117173;27;20429;-67
2022/01/21 03:13:47;;;;;;;7.85;1.63;;;3.10;99.90;;;;;;5135601;27;20100;-67
2022/01/21 03:16:13;;;;;;;11.63;1.85;;;3.00;99.90;;;;;;5100536;27;20487;-67
2022/01/21 03:18:39;;;;;;;8.57;1.67;;;3.00;99.90;;;;;;5100265;27;20043;-68
2022/01/21 03:21:05;;;;;;;8.32;2.08;;;3.00;99.90;;;;;;5135844;27;20039;-68
2022/01/21 03:23:31;;;;;;;6.97;1.80;;;3.00;99.90;;;;;;5116615;27;20043;-68
2022/01/21 03:25:57;;;;;;;5.50;1.83;;;3.00;99.90;;;;;;5100376;27;20065;-68
2022/01/21 03:28:22;;;;;;;7.63;1.80;;;3.00;99.90;;;;;;5117108;27;20037;-68
2022/01/21 03:30:51;;;;;;;6.20;1.73;;;3.00;99.90;;;;;;5117019;27;20043;-68
2022/01/21 03:33:16;;;;;;;7.22;1.80;;;3.00;99.90;;;;;;5099679;27;20039;-68
2022/01/21 03:35:42;;;;;;;10.15;1.80;;;3.00;99.90;;;;;;5135392;27;20071;-68
2022/01/21 03:38:09;;;;;;;8.30;1.73;;;3.00;99.90;;;;;;5101059;27;20134;-68
2022/01/21 03:40:34;;;;;;;7.78;1.65;;;3.10;99.90;;;;;;5118340;27;20074;-68
2022/01/21 03:43:00;;;;;;;11.32;2.10;;;3.10;99.90;;;;;;5117838;27;20043;-68
2022/01/21 03:45:25;;;;;;;7.18;2.03;;;3.00;99.90;;;;;;5100796;27;20462;-68
2022/01/21 03:47:52;;;;;;;8.65;2.80;;;3.10;99.90;;;;;;5136307;27;20047;-68
2022/01/21 03:50:32;;;;;;;11.13;2.90;;;3.00;99.90;;;;;;5136433;27;20035;-68
2022/01/21 03:52:59;;;;;;;13.25;4.35;;;3.00;99.90;;;;;;5100576;27;20035;-68
2022/01/21 03:55:25;;;;;;;11.88;3.50;;;3.10;99.90;;;;;;5117325;27;20048;-68
2022/01/21 03:57:51;;;;;;;8.32;2.53;;;3.00;99.90;;;;;;5100880;27;20471;-69
2022/01/21 04:00:21;;;;;;;9.07;2.63;;;3.00;99.90;;;;;;5117530;27;20086;-68
2022/01/21 04:02:47;;;;;;;10.50;2.95;;;3.00;99.90;;;;;;5116271;27;20046;-68
2022/01/21 04:05:12;;;;;;;12.60;3.13;;;3.00;99.90;;;;;;5099314;27;20127;-69
2022/01/21 04:07:38;;;;;;;7.53;1.70;;;3.10;99.90;;;;;;5099389;27;20544;-68
2022/01/21 04:10:05;;;;;;;8.77;2.08;;;3.10;99.90;;;;;;5116297;27;20502;-68
2022/01/21 04:12:31;;;;;;;5.78;1.48;;;3.10;99.90;;;;;;5115681;27;20050;-68
2022/01/21 04:14:58;;;;;;;6.25;1.55;;;3.10;99.90;;;;;;5134706;27;20035;-68
2022/01/21 04:17:27;;;;;;;8.32;2.03;;;3.10;99.90;;;;;;5116220;27;20036;-68
2022/01/21 04:19:53;;;;;;;8.30;1.42;;;3.10;99.90;;;;;;5116087;27;20047;-68
2022/01/21 04:22:19;;;;;;;3.92;1.75;;;3.10;99.90;;;;;;5115324;27;20047;-68
2022/01/21 04:24:46;;;;;;;9.48;1.60;;;3.10;99.90;;;;;;5115838;27;20058;-68
2022/01/21 04:27:12;;;;;;;8.75;2.28;;;3.00;99.90;;;;;;5134332;27;20141;-68
2022/01/21 04:29:38;;;;;;;7.43;2.30;;;3.00;99.90;;;;;;5116162;27;20031;-69
2022/01/21 04:32:04;;;;;;;11.10;2.63;;;3.10;99.90;;;;;;5115708;27;20035;-68
2022/01/21 04:34:30;;;;;;;8.95;2.75;;;3.00;99.90;;;;;;5141471;27;20399;-68
2022/01/21 04:36:55;;;;;;;8.13;3.03;;;3.00;99.90;;;;;;5125342;27;20035;-69
2022/01/21 04:39:28;;;;;;;5.53;1.70;;;3.00;99.90;;;;;;5121702;27;20043;-68
2022/01/21 04:47:17;;;;;;;11.15;2.47;;;2.90;99.90;;;;;;5115070;27;20139;-68
2022/01/21 04:47:23;;;;;;;7.47;1.50;;;2.90;99.90;;;;;;5134175;27;20047;-68
2022/01/21 04:49:49;;;;;;;7.38;2.45;;;2.90;99.90;;;;;;5134139;27;20031;-68
2022/01/21 04:52:15;;;;;;;10.60;1.88;;;2.90;99.90;;;;;;5115288;27;20483;-69
2022/01/21 04:54:41;;;;;;;8.77;3.33;;;2.90;99.90;;;;;;5115330;27;20086;-68
2022/01/21 04:57:07;;;;;;;11.07;2.63;;;2.90;99.90;;;;;;5098426;27;20503;-68
2022/01/21 04:59:33;;;;;;;13.15;3.40;;;2.90;99.90;;;;;;5133747;27;20039;-68
2022/01/21 05:01:59;;;;;;;9.60;1.92;;;2.90;99.90;;;;;;5115016;27;20463;-68
2022/01/21 05:04:25;;;;;;;7.47;2.40;;;2.80;99.90;;;;;;5133765;27;20088;-68
2022/01/21 05:06:53;;;;;;;10.80;2.00;;;2.80;99.90;;;;;;5098387;27;20406;-68
2022/01/21 05:09:19;;;;;;;9.45;2.13;;;2.90;99.90;;;;;;5115176;27;20050;-68
2022/01/21 05:11:47;;;;;;;13.05;3.88;;;2.90;99.90;;;;;;5114570;27;20049;-69
2022/01/21 05:14:22;;;;;;;13.57;2.53;;;2.80;99.90;;;;;;5133504;27;20045;-69
2022/01/21 05:16:51;;;;;;;11.63;2.03;;;2.90;99.90;;;;;;5133936;27;20046;-68
2022/01/21 05:19:19;;;;;;;11.60;2.22;;;2.90;99.90;;;;;;5133522;27;20403;-68
2022/01/21 05:21:49;;;;;;;6.75;1.90;;;2.80;99.90;;;;;;5114614;27;20106;-69
2022/01/21 05:24:19;;;;;;;13.25;2.45;;;2.80;99.90;;;;;;5114906;27;20047;-68
2022/01/21 05:26:53;;;;;;;17.30;2.50;;;2.80;99.90;;;;;;5114584;27;20045;-68
2022/01/21 05:29:21;;;;;;;8.65;2.10;;;2.80;99.90;;;;;;5133344;27;20043;-68
2022/01/21 05:31:47;;;;;;;7.75;2.00;;;2.80;99.90;;;;;;5114105;27;20039;-68
2022/01/21 05:34:12;;;;;;;9.20;3.55;;;2.80;99.90;;;;;;5097737;27;20376;-68
2022/01/21 05:36:40;;;;;;;8.82;1.80;;;2.80;99.90;;;;;;5114757;27;20072;-68
2022/01/21 05:39:07;;;;;;;10.38;2.13;;;2.80;99.90;;;;;;5114722;27;20058;-68
2022/01/21 05:41:32;;;;;;;6.97;1.98;;;2.80;99.90;;;;;;5114558;27;20122;-68
2022/01/21 05:44:05;;;;;;;10.88;2.17;;;2.80;99.90;;;;;;5114616;27;20562;-68
2022/01/21 05:46:54;;;;;;;13.88;2.28;;;2.70;99.90;;;;;;5132927;27;20406;-68
2022/01/21 05:49:17;;;;;;;12.90;2.75;;;2.70;99.90;;;;;;5132674;27;20408;-68
2022/01/21 05:51:43;;;;;;;7.40;2.08;;;2.70;99.90;;;;;;5132502;27;20197;-68
2022/01/21 05:54:09;;;;;;;14.23;2.35;;;2.80;99.90;;;;;;5113104;27;20075;-68
2022/01/21 05:56:37;;;;;;;8.73;2.70;;;2.80;99.90;;;;;;5133000;27;20047;-68
2022/01/21 05:59:04;;;;;;;8.27;2.47;;;2.80;99.90;;;;;;5114301;28;20047;-68
2022/01/21 06:01:31;;;;;;;11.10;2.45;;;2.80;99.90;;;;;;5132581;27;20070;-68
2022/01/21 06:03:57;;;;;;;9.38;3.03;;;2.80;99.90;;;;;;5097201;27;20092;-68
2022/01/21 06:06:22;;;;;;;12.55;2.20;;;2.80;99.90;;;;;;5114947;28;20440;-69
2022/01/21 06:08:48;;;;;;;9.32;2.30;;;2.70;99.90;;;;;;5133727;28;20047;-68
2022/01/21 06:11:13;;;;;;;11.88;2.70;;;2.80;99.90;;;;;;5115082;28;20031;-68
2022/01/21 06:13:39;;;;;;;12.88;4.45;;;2.80;99.90;;;;;;5115204;27;20092;-68
2022/01/21 06:16:05;;;;;;;12.85;5.50;;;2.80;99.90;;;;;;5134022;28;20035;-68
2022/01/21 06:18:30;;;;;;;16.55;3.53;;;2.80;99.90;;;;;;5099009;28;20046;-69
2022/01/21 06:20:56;;;;;;;15.68;3.42;;;2.80;99.90;;;;;;5116480;28;20031;-68
2022/01/21 06:23:22;;;;;;;12.80;4.00;;;2.80;99.90;;;;;;5133333;27;20076;-68
2022/01/21 06:25:48;;;;;;;13.32;2.25;;;2.80;99.90;;;;;;5114238;28;20074;-67
2022/01/21 06:28:13;;;;;;;8.55;2.47;;;2.80;99.90;;;;;;5114001;28;20139;-67
2022/01/21 06:30:39;;;;;;;9.30;2.50;;;2.80;99.90;;;;;;5114984;28;20110;-68
2022/01/21 06:33:04;;;;;;;9.90;2.78;;;2.90;99.90;;;;;;5114526;28;20095;-67
2022/01/21 06:35:30;;;;;;;11.55;2.60;;;2.80;99.90;;;;;;5132530;27;20178;-67
2022/01/21 06:37:56;;;;;;;7.70;2.20;;;2.70;99.90;;;;;;5114225;28;20091;-68
2022/01/21 06:40:22;;;;;;;8.35;2.05;;;2.80;99.90;;;;;;5114094;28;20047;-67
2022/01/21 06:42:50;;;;;;;22.02;4.13;;;2.80;99.90;;;;;;5113565;28;20043;-67
2022/01/21 06:45:16;;;;;;;22.17;5.00;;;2.80;99.90;;;;;;5114214;28;20047;-67
2022/01/21 06:47:42;;;;;;;12.07;3.40;;;2.90;99.90;;;;;;5113894;28;20051;-67
2022/01/21 06:50:08;;;;;;;9.70;2.83;;;2.90;99.90;;;;;;5114222;28;20047;-67
2022/01/21 06:52:34;;;;;;;9.52;3.13;;;2.80;99.90;;;;;;5113801;28;20034;-67
2022/01/21 06:55:00;;;;;;;12.35;4.00;;;2.80;99.90;;;;;;5113688;28;20047;-67
2022/01/21 06:57:27;;;;;;;16.27;5.97;;;2.80;99.90;;;;;;5132275;28;20479;-67
2022/01/21 06:59:53;;;;;;;11.85;3.17;;;2.80;99.90;;;;;;5124593;27;20041;-68
2022/01/21 07:02:19;;;;;;;12.68;4.00;;;2.80;99.90;;;;;;5134092;27;20494;-68
2022/01/21 07:04:49;;;;;;;10.10;3.70;;;2.90;99.90;;;;;;5135904;27;20100;-68
2022/01/21 07:07:16;;;;;;;9.02;4.15;;;2.90;99.90;;;;;;5120936;27;20038;-68
2022/01/21 07:09:42;;;;;;;8.38;2.80;;;2.90;99.90;;;;;;5121144;27;20443;-68
2022/01/21 07:12:09;;;;;;;11.63;2.65;;;2.90;99.90;;;;;;5156218;27;20045;-68
2022/01/21 07:14:35;;;;;;;9.73;1.95;;;2.90;99.90;;;;;;5120807;27;20126;-67
2022/01/21 07:17:01;;;;;;;8.27;2.17;;;2.90;99.90;;;;;;5138072;27;20067;-68
2022/01/21 07:19:27;;;;;;;9.52;2.05;;;3.00;99.90;;;;;;5137464;27;20042;-67
2022/01/21 07:21:52;;;;;;;17.02;3.83;;;3.00;99.90;;;;;;5137077;27;20195;-68
2022/01/21 07:24:19;;;;;;;6.35;1.48;;;3.00;99.90;;;;;;5154294;27;20038;-67
2022/01/21 07:26:44;;;;;;;11.98;2.35;;;3.00;99.90;;;;;;5134610;27;20050;-68
2022/01/21 07:29:10;;;;;;;4.50;1.90;;;3.00;99.90;;;;;;5154199;27;20031;-68
2022/01/21 07:31:36;;;;;;;11.07;4.32;;;3.00;99.90;;;;;;5137671;27;20035;-68
2022/01/21 07:34:04;;;;;;;25.20;8.50;;;2.90;99.90;;;;;;5119778;27;20111;-68
2022/01/21 07:36:31;;;;;;;51.72;23.65;;;3.00;99.90;;;;;;5136533;27;20050;-68
2022/01/21 07:38:57;;;;;;;35.78;14.88;;;3.10;99.90;;;;;;5119444;27;20042;-68
2022/01/21 07:41:23;;;;;;;19.48;7.90;;;3.00;99.90;;;;;;5137643;27;20034;-68
2022/01/21 07:43:48;;;;;;;12.73;4.70;;;3.00;99.90;;;;;;5155998;27;20393;-68
2022/01/21 07:46:15;;;;;;;12.80;2.58;;;3.00;99.90;;;;;;5137410;27;20050;-68
2022/01/21 07:48:41;;;;;;;10.27;2.63;;;2.90;99.90;;;;;;5137492;27;20042;-68
2022/01/21 07:51:06;;;;;;;10.57;2.30;;;3.00;99.90;;;;;;5120501;27;20039;-68
2022/01/21 07:53:32;;;;;;;8.60;2.50;;;3.00;99.90;;;;;;5137220;27;20035;-68
2022/01/21 07:55:57;;;;;;;14.15;2.38;;;3.00;99.90;;;;;;5155854;27;20049;-68
2022/01/21 07:58:23;;;;;;;6.07;1.73;;;3.00;99.90;;;;;;5137624;27;20039;-68
2022/01/21 08:00:49;;;;;;;7.47;1.88;;;2.90;99.90;;;;;;5145708;27;20087;-68
2022/01/21 08:03:15;;;;;;;6.10;1.92;;;3.00;99.90;;;;;;5145973;27;20035;-68
2022/01/21 08:05:42;;;;;;;9.63;1.77;;;2.80;99.90;;;;;;5140036;27;20535;-68
2022/01/21 08:08:08;;;;;;;9.85;2.55;;;2.80;99.90;;;;;;5137080;27;20394;-68
2022/01/21 08:10:34;;;;;;;12.23;2.83;;;2.80;99.90;;;;;;5137035;27;20039;-68
2022/01/21 08:13:00;;;;;;;4.38;2.30;;;2.90;99.90;;;;;;5136968;27;20046;-68
2022/01/21 08:15:27;;;;;;;16.30;2.97;;;2.90;99.90;;;;;;5154760;27;20053;-68
2022/01/21 08:17:52;;;;;;;16.58;4.68;;;2.90;99.90;;;;;;5119348;27;20038;-68
2022/01/21 08:20:18;;;;;;;13.10;4.25;;;2.90;99.90;;;;;;5136371;27;20103;-68
2022/01/21 08:22:43;;;;;;;10.50;3.85;;;2.90;99.90;;;;;;5154919;27;20546;-68
2022/01/21 08:25:09;;;;;;;14.05;3.95;;;2.90;99.90;;;;;;5136756;27;20039;-68
2022/01/21 08:27:36;;;;;;;15.73;6.00;;;2.90;99.90;;;;;;5136563;27;20047;-68
2022/01/21 08:30:03;;;;;;;7.93;4.22;;;3.00;99.90;;;;;;5136649;27;20494;-68
2022/01/21 08:32:29;;;;;;;16.05;5.20;;;2.90;99.90;;;;;;5154857;27;20043;-69
2022/01/21 08:34:55;;;;;;;10.77;5.10;;;2.90;99.90;;;;;;5119569;27;20483;-69
2022/01/21 08:37:20;;;;;;;10.95;5.53;;;2.90;99.90;;;;;;5155122;27;20043;-69
2022/01/21 08:39:46;;;;;;;12.75;3.90;;;2.90;99.90;;;;;;5123620;27;20052;-68
2022/01/21 08:42:12;;;;;;;7.30;2.95;;;2.90;99.90;;;;;;5115071;27;20046;-68
2022/01/21 08:44:38;;;;;;;9.52;2.50;;;2.90;99.90;;;;;;5134107;27;20047;-69
2022/01/21 08:47:04;;;;;;;5.32;1.75;;;3.00;99.90;;;;;;5115313;27;20047;-69
2022/01/21 08:49:30;;;;;;;14.07;3.42;;;3.00;99.90;;;;;;5115499;27;20053;-69
2022/01/21 08:51:57;;;;;;;17.88;2.35;;;3.10;99.90;;;;;;5133682;27;20039;-69
2022/01/21 08:54:24;;;;;;;11.85;2.40;;;3.00;99.90;;;;;;5115369;27;20039;-69
2022/01/21 08:56:51;;;;;;;8.07;2.72;;;3.10;99.90;;;;;;5133541;27;20035;-68
2022/01/21 08:59:18;;;;;;;13.32;2.55;;;3.10;99.90;;;;;;5133696;27;20035;-69
2022/01/21 09:01:45;;;;;;;11.43;2.55;;;3.20;99.90;;;;;;5115100;27;20077;-68
2022/01/21 09:04:11;;;;;;;10.43;1.90;;;3.20;99.90;;;;;;5114590;27;20560;-69
2022/01/21 09:06:37;;;;;;;7.97;2.63;;;3.20;99.90;;;;;;5098059;27;20039;-68
2022/01/21 09:09:03;;;;;;;15.73;2.80;;;3.30;99.90;;;;;;5133415;27;20058;-69
2022/01/21 09:11:28;;;;;;;13.23;3.22;;;3.30;99.90;;;;;;5115136;27;20087;-69
2022/01/21 09:13:54;;;;;;;13.43;2.80;;;3.40;99.90;;;;;;5114889;27;20544;-68
2022/01/21 09:16:20;;;;;;;13.95;2.97;;;3.40;99.90;;;;;;5133517;27;20039;-69
2022/01/21 09:18:51;;;;;;;14.25;4.22;;;3.40;99.90;;;;;;5098112;27;20091;-68
2022/01/21 09:21:19;;;;;;;8.15;2.63;;;3.40;99.90;;;;;;5114955;27;20039;-69
2022/01/21 09:23:48;;;;;;;6.53;2.45;;;3.50;99.90;;;;;;5133169;27;20126;-69
2022/01/21 09:26:16;;;;;;;8.82;2.50;;;3.60;99.90;;;;;;5133287;27;20046;-69
2022/01/21 09:28:42;;;;;;;14.27;2.38;;;3.60;99.90;;;;;;5114683;27;20031;-69
2022/01/21 09:31:07;;;;;;;12.45;2.55;;;3.70;99.90;;;;;;5098111;27;20039;-69
2022/01/21 09:33:33;;;;;;;11.00;2.20;;;3.70;99.90;;;;;;5115670;27;20192;-69
2022/01/21 09:35:58;;;;;;;10.65;2.42;;;3.60;99.90;;;;;;5137533;27;20058;-69
2022/01/21 09:38:25;;;;;;;21.15;2.78;;;3.60;99.90;;;;;;5117002;27;20060;-69
2022/01/21 09:40:51;;;;;;;11.88;2.35;;;3.50;99.90;;;;;;5134755;27;20130;-69
2022/01/21 09:43:18;;;;;;;10.80;2.70;;;3.60;99.90;;;;;;5114006;27;20114;-69
2022/01/21 09:45:53;;;;;;;14.38;2.13;;;3.60;99.90;;;;;;5114537;27;20047;-69
2022/01/21 09:48:23;;;;;;;14.52;2.55;;;3.70;99.90;;;;;;5114582;27;20039;-69
2022/01/21 09:50:55;;;;;;;16.10;2.72;;;3.70;99.90;;;;;;5133484;27;20432;-69
2022/01/21 09:53:40;;;;;;;14.70;2.72;;;3.80;99.90;;;;;;5114432;27;20043;-69
2022/01/21 09:56:06;;;;;;;13.30;2.33;;;3.80;99.90;;;;;;5132866;27;20542;-69
2022/01/21 09:58:32;;;;;;;13.25;2.63;;;3.80;99.90;;;;;;5114346;27;20039;-69
2022/01/21 10:01:01;;;;;;;11.95;4.43;;;3.80;99.90;;;;;;5114461;28;20499;-69
2022/01/21 10:03:27;;;;;;;11.75;2.78;;;3.90;99.90;;;;;;5113909;27;20067;-69
2022/01/21 10:05:54;;;;;;;29.92;6.18;;;3.80;99.90;;;;;;5114387;27;20107;-69
2022/01/21 10:08:23;;;;;;;20.88;5.80;;;3.80;99.90;;;;;;5113991;28;20479;-69
2022/01/21 10:10:49;;;;;;;43.47;13.15;;;3.90;99.90;;;;;;5114351;28;20039;-70
2022/01/21 10:13:17;;;;;;;28.15;9.82;;;3.90;99.90;;;;;;5113798;28;20122;-69
2022/01/21 10:15:42;;;;;;;19.15;4.38;;;3.90;99.90;;;;;;5132657;27;20035;-69
2022/01/21 10:18:14;;;;;;;12.98;3.40;;;3.90;99.90;;;;;;5114167;28;20054;-69
2022/01/21 10:20:55;;;;;;;16.17;3.15;;;3.90;99.90;;;;;;5114310;28;20039;-71
2022/01/21 10:23:21;;;;;;;11.27;2.78;;;4.00;99.90;;;;;;5132122;27;20126;-69
2022/01/21 10:25:56;;;;;;;9.15;2.85;;;4.00;99.90;;;;;;5113981;28;20071;-70
2022/01/21 10:28:22;;;;;;;8.88;2.97;;;4.10;99.90;;;;;;5114214;28;20115;-69
2022/01/21 10:30:48;;;;;;;8.95;2.95;;;4.10;99.90;;;;;;5097040;28;20039;-69
2022/01/21 10:33:19;;;;;;;13.90;3.58;;;4.20;99.90;;;;;;5113793;28;20031;-69
2022/01/21 10:35:47;;;;;;;13.95;3.45;;;4.20;99.90;;;;;;5132400;27;20523;-69
2022/01/21 10:38:14;;;;;;;8.82;2.35;;;4.30;99.90;;;;;;5114296;27;20047;-69
2022/01/21 10:40:40;;;;;;;17.35;3.55;;;4.30;99.90;;;;;;5117220;27;20395;-69
2022/01/21 10:43:14;;;;;;;12.52;2.90;;;4.40;99.90;;;;;;5117833;27;20054;-69
2022/01/21 10:45:54;;;;;;;19.58;2.55;;;4.40;99.90;;;;;;5100311;27;20047;-68
2022/01/21 10:48:20;;;;;;;9.20;2.75;;;4.30;99.90;;;;;;5101012;27;20047;-68
2022/01/21 10:50:46;;;;;;;9.80;2.55;;;4.40;99.90;;;;;;5118134;27;20043;-68
2022/01/21 10:53:29;;;;;;;15.93;2.90;;;4.50;99.90;;;;;;5124748;27;20050;-68
2022/01/21 10:56:10;;;;;;;7.03;2.50;;;4.50;99.90;;;;;;5126840;27;20081;-68
2022/01/21 10:58:41;;;;;;;7.45;2.58;;;4.50;99.90;;;;;;5121962;27;20503;-69
2022/01/21 11:01:13;;;;;;;7.63;3.60;;;4.60;99.90;;;;;;5145222;27;20415;-69
2022/01/21 11:04:04;;;;;;;17.90;3.13;;;4.60;99.90;;;;;;5132592;27;20432;-69
2022/01/21 11:06:40;;;;;;;17.65;3.30;;;4.60;99.90;;;;;;5154464;27;20038;-69
2022/01/21 11:09:16;;;;;;;17.42;3.67;;;4.80;99.90;;;;;;5135276;27;20043;-69
2022/01/21 11:11:43;;;;;;;12.75;3.97;;;4.70;99.90;;;;;;5117233;27;20387;-69
2022/01/21 11:14:19;;;;;;;20.63;5.47;;;4.70;99.90;;;;;;5135984;27;20395;-69
2022/01/21 11:16:48;;;;;;;15.82;4.28;;;4.70;99.90;;;;;;5136028;27;20047;-69
2022/01/21 11:19:24;;;;;;;13.45;4.93;;;4.70;99.90;;;;;;5117745;27;20111;-69
2022/01/21 11:21:53;;;;;;;20.70;4.70;;;4.80;99.90;;;;;;5100318;27;20046;-69
2022/01/21 11:24:21;;;;;;;11.50;3.58;;;4.80;99.90;;;;;;5117579;27;20043;-69
2022/01/21 11:27:14;;;;;;;14.20;3.08;;;4.80;99.90;;;;;;5135661;27;20043;-69
2022/01/21 11:29:41;;;;;;;11.05;2.55;;;4.90;99.90;;;;;;5145347;27;20550;-70
2022/01/21 11:32:07;;;;;;;6.85;2.33;;;4.90;99.90;;;;;;5117268;27;20035;-69
2022/01/21 11:34:34;;;;;;;7.63;2.53;;;4.90;99.90;;;;;;5116903;27;20039;-68
2022/01/21 11:37:00;;;;;;;13.57;2.70;;;5.10;99.90;;;;;;5135493;27;20031;-69
2022/01/21 11:39:27;;;;;;;6.45;2.15;;;5.00;99.90;;;;;;5116834;27;20089;-68
2022/01/21 11:41:57;;;;;;;13.02;2.30;;;5.10;99.90;;;;;;5116627;27;20124;-69
2022/01/21 11:44:26;;;;;;;13.48;1.95;;;5.10;99.90;;;;;;5135307;27;20437;-68
2022/01/21 11:49:40;;;;;;;14.55;3.35;;;5.10;99.90;;;;;;5135338;27;20062;-68
2022/01/21 11:52:15;;;;;;;16.55;3.60;;;5.20;99.90;;;;;;5133487;27;20039;-68
2022/01/21 11:54:42;;;;;;;13.43;2.67;;;5.20;99.90;;;;;;5135118;27;20110;-68
2022/01/21 11:57:11;;;;;;;13.07;3.08;;;5.20;99.90;;;;;;5099641;27;20043;-68
2022/01/21 11:59:51;;;;;;;14.32;3.05;;;5.30;99.90;;;;;;5135018;27;20043;-68
2022/01/21 12:02:26;;;;;;;17.25;2.72;;;5.30;99.90;;;;;;5116561;27;20375;-69
2022/01/21 12:04:57;;;;;;;15.18;2.60;;;5.40;99.90;;;;;;5116503;27;20050;-68
2022/01/21 12:07:44;;;;;;;13.25;3.47;;;5.40;99.90;;;;;;5116094;27;20122;-69
2022/01/21 12:10:12;;;;;;;20.10;3.30;;;5.50;99.90;;;;;;5117175;27;20043;-69
2022/01/21 12:12:55;;;;;;;14.35;2.88;;;5.60;99.90;;;;;;5117080;27;20047;-69
2022/01/21 12:15:54;;;;;;;15.35;3.22;;;5.60;99.90;;;;;;5116714;27;20043;-68
2022/01/21 12:18:52;;;;;;;12.15;2.47;;;5.60;99.90;;;;;;5134951;27;20407;-68
2022/01/21 12:21:30;;;;;;;13.98;2.97;;;5.80;99.90;;;;;;5116379;27;20058;-68
2022/01/21 12:23:56;;;;;;;24.08;3.35;;;5.80;99.90;;;;;;5100584;27;20035;-68
2022/01/21 12:26:26;;;;;;;19.20;3.03;;;5.70;99.90;;;;;;5102773;27;20039;-68
2022/01/21 12:28:52;;;;;;;12.30;2.63;;;5.80;99.90;;;;;;5117447;27;20043;-68
2022/01/21 12:31:18;;;;;;;13.25;2.28;;;5.90;99.90;;;;;;5134595;27;20061;-68
2022/01/21 12:36:31;;;;;;;21.08;4.43;;;5.90;99.90;;;;;;5134457;27;20133;-69
2022/01/21 12:41:32;;;;;;;13.07;3.75;;;6.00;99.90;;;;;;5134278;27;19968;-68
2022/01/21 12:44:06;;;;;;;22.00;4.00;;;6.00;99.90;;;;;;5115690;27;20031;-68
2022/01/21 12:46:40;;;;;;;19.02;4.85;;;6.00;99.90;;;;;;5133622;27;20116;-68
2022/01/21 12:49:45;;;;;;;14.82;3.38;;;6.00;99.90;;;;;;5134218;27;20043;-68
2022/01/21 12:52:14;;;;;;;16.30;5.43;;;6.00;99.90;;;;;;5084798;27;20043;-68
2022/01/21 12:57:31;;;;;;;10.00;1.88;;;6.10;99.90;;;;;;5115377;27;20055;-68
2022/01/21 13:00:08;;;;;;;17.80;2.45;;;6.10;99.90;;;;;;5114932;27;20054;-68
2022/01/21 13:02:33;;;;;;;11.73;2.13;;;6.10;99.90;;;;;;5114847;27;20071;-69
2022/01/21 13:05:22;;;;;;;9.95;2.00;;;6.20;99.90;;;;;;5117612;27;20127;-68
2022/01/21 13:08:07;;;;;;;9.77;2.38;;;6.20;99.90;;;;;;5143943;27;20167;-66
2022/01/21 13:10:33;;;;;;;12.90;2.35;;;6.20;99.90;;;;;;5118566;27;20069;-67
2022/01/21 13:15:45;;;;;;;7.38;1.73;;;6.30;99.90;;;;;;5144515;27;20049;-67
2022/01/21 13:18:12;;;;;;;12.25;2.40;;;6.30;99.90;;;;;;5122976;27;20458;-66
2022/01/21 13:20:39;;;;;;;8.77;1.95;;;6.30;99.90;;;;;;5133105;27;20035;-68
2022/01/21 13:23:05;;;;;;;8.63;2.60;;;6.30;99.90;;;;;;5143744;27;20046;-68
2022/01/21 13:25:32;;;;;;;13.90;2.40;;;6.30;99.90;;;;;;5114972;27;20039;-69
2022/01/21 13:28:01;;;;;;;12.10;1.85;;;6.30;99.90;;;;;;5116849;27;20053;-68
2022/01/21 13:30:29;;;;;;;12.00;2.30;;;6.70;99.90;;;;;;5135770;27;20067;-69
2022/01/21 13:33:09;;;;;;;8.07;1.98;;;6.50;99.90;;;;;;5115978;27;20047;-69
2022/01/21 13:35:44;;;;;;;11.18;2.00;;;6.40;99.90;;;;;;5115119;27;20503;-69
2022/01/21 13:38:11;;;;;;;9.45;2.42;;;6.50;99.90;;;;;;5115055;27;20074;-69
2022/01/21 13:40:43;;;;;;;6.55;2.03;;;6.50;99.90;;;;;;5133366;27;20518;-69
2022/01/21 13:43:27;;;;;;;11.75;2.42;;;6.50;99.90;;;;;;5114705;27;20567;-69
2022/01/21 13:46:08;;;;;;;12.23;2.20;;;6.50;99.90;;;;;;5114279;27;20123;-69